sensor_id;sensor_type;location;lat;lon;timestamp;P1;P2;P0
79038;PMS5003;68436;55.068;73.284;2023-11-18T00:01:54;56.33;41.00;24.00
79038;PMS5003;68436;55.068;73.284;2023-11-18T00:04:20;56.75;43.25;26.50
79038;PMS5003;68436;55.068;73.284;2023-11-18T00:06:54;98.67;74.67;40.00
79038;PMS5003;68436;55.068;73.284;2023-11-18T00:09:20;72.25;53.75;32.75
79038;PMS5003;68436;55.068;73.284;2023-11-18T00:11:54;72.33;52.67;31.00
79038;PMS5003;68436;55.068;73.284;2023-11-18T00:14:20;77.00;57.75;32.75
79038;PMS5003;68436;55.068;73.284;2023-11-18T00:16:54;65.00;48.00;30.00
79038;PMS5003;68436;55.068;73.284;2023-11-18T00:19:20;76.25;55.25;31.75
79038;PMS5003;68436;55.068;73.284;2023-11-18T00:21:54;69.67;50.00;29.00
79038;PMS5003;68436;55.068;73.284;2023-11-18T00:24:20;53.00;39.50;24.25
79038;PMS5003;68436;55.068;73.284;2023-11-18T00:26:54;60.67;43.00;25.00
79038;PMS5003;68436;55.068;73.284;2023-11-18T00:29:20;48.00;36.00;21.00
79038;PMS5003;68436;55.068;73.284;2023-11-18T00:31:54;57.00;41.67;24.33
79038;PMS5003;68436;55.068;73.284;2023-11-18T00:34:21;61.75;45.75;26.00
79038;PMS5003;68436;55.068;73.284;2023-11-18T00:36:54;56.50;43.00;24.00
79038;PMS5003;68436;55.068;73.284;2023-11-18T00:39:20;54.75;40.50;23.00
79038;PMS5003;68436;55.068;73.284;2023-11-18T00:41:54;56.00;41.00;23.00
79038;PMS5003;68436;55.068;73.284;2023-11-18T00:44:21;56.25;40.25;23.25
79038;PMS5003;68436;55.068;73.284;2023-11-18T00:46:54;40.50;31.00;19.00
79038;PMS5003;68436;55.068;73.284;2023-11-18T00:49:20;50.25;38.00;22.00
79038;PMS5003;68436;55.068;73.284;2023-11-18T00:51:54;46.00;35.67;22.00
79038;PMS5003;68436;55.068;73.284;2023-11-18T00:54:22;50.00;38.00;21.00
79038;PMS5003;68436;55.068;73.284;2023-11-18T00:56:54;43.00;34.00;20.50
79038;PMS5003;68436;55.068;73.284;2023-11-18T00:59:20;44.00;33.00;20.00
79038;PMS5003;68436;55.068;73.284;2023-11-18T01:01:54;47.33;36.00;20.67
79038;PMS5003;68436;55.068;73.284;2023-11-18T01:04:31;46.50;37.00;22.00
79038;PMS5003;68436;55.068;73.284;2023-11-18T01:06:58;42.00;32.60;18.80
79038;PMS5003;68436;55.068;73.284;2023-11-18T01:09:24;44.50;34.00;19.75
79038;PMS5003;68436;55.068;73.284;2023-11-18T01:11:54;44.50;33.50;19.50
79038;PMS5003;68436;55.068;73.284;2023-11-18T01:14:20;47.50;34.50;20.25
79038;PMS5003;68436;55.068;73.284;2023-11-18T01:16:56;47.00;35.00;20.00
79038;PMS5003;68436;55.068;73.284;2023-11-18T01:19:22;54.00;40.00;24.00
79038;PMS5003;68436;55.068;73.284;2023-11-18T01:21:54;39.50;30.50;18.00
79038;PMS5003;68436;55.068;73.284;2023-11-18T01:24:21;46.00;35.00;20.75
79038;PMS5003;68436;55.068;73.284;2023-11-18T01:26:54;42.00;33.00;18.50
79038;PMS5003;68436;55.068;73.284;2023-11-18T01:29:23;36.25;27.50;17.25
79038;PMS5003;68436;55.068;73.284;2023-11-18T01:31:54;37.00;29.00;16.50
79038;PMS5003;68436;55.068;73.284;2023-11-18T01:34:21;35.25;27.25;17.00
79038;PMS5003;68436;55.068;73.284;2023-11-18T01:36:54;36.00;27.00;16.00
79038;PMS5003;68436;55.068;73.284;2023-11-18T01:39:25;40.00;29.75;18.00
79038;PMS5003;68436;55.068;73.284;2023-11-18T01:41:55;38.00;29.00;18.00
79038;PMS5003;68436;55.068;73.284;2023-11-18T01:44:21;41.00;31.25;19.00
79038;PMS5003;68436;55.068;73.284;2023-11-18T01:46:57;42.00;30.00;17.00
79038;PMS5003;68436;55.068;73.284;2023-11-18T01:49:23;42.00;32.50;19.50
79038;PMS5003;68436;55.068;73.284;2023-11-18T01:51:54;39.00;31.50;18.00
79038;PMS5003;68436;55.068;73.284;2023-11-18T01:54:21;37.50;30.25;18.00
79038;PMS5003;68436;55.068;73.284;2023-11-18T01:56:56;48.00;37.00;22.00
79038;PMS5003;68436;55.068;73.284;2023-11-18T01:59:23;41.25;32.00;20.00
79038;PMS5003;68436;55.068;73.284;2023-11-18T02:01:54;40.50;32.00;18.50
79038;PMS5003;68436;55.068;73.284;2023-11-18T02:04:27;40.25;30.25;17.75
79038;PMS5003;68436;55.068;73.284;2023-11-18T02:06:54;33.50;27.00;16.50
79038;PMS5003;68436;55.068;73.284;2023-11-18T02:09:21;35.00;27.25;16.00
79038;PMS5003;68436;55.068;73.284;2023-11-18T02:14:39;40.00;30.50;17.00
79038;PMS5003;68436;55.068;73.284;2023-11-18T02:17:05;37.00;29.00;17.00
79038;PMS5003;68436;55.068;73.284;2023-11-18T02:19:35;34.25;27.00;16.00
79038;PMS5003;68436;55.068;73.284;2023-11-18T02:22:02;35.25;27.00;16.00
79038;PMS5003;68436;55.068;73.284;2023-11-18T02:24:29;31.25;24.00;15.00
79038;PMS5003;68436;55.068;73.284;2023-11-18T02:27:06;33.33;25.00;15.00
79038;PMS5003;68436;55.068;73.284;2023-11-18T02:29:34;46.25;33.50;21.00
79038;PMS5003;68436;55.068;73.284;2023-11-18T02:32:07;33.00;26.00;16.50
79038;PMS5003;68436;55.068;73.284;2023-11-18T02:34:36;29.00;21.25;12.00
79038;PMS5003;68436;55.068;73.284;2023-11-18T02:37:05;23.25;19.00;10.00
79038;PMS5003;68436;55.068;73.284;2023-11-18T02:39:34;31.00;24.00;14.00
79038;PMS5003;68436;55.068;73.284;2023-11-18T02:42:07;39.67;31.00;17.00
79038;PMS5003;68436;55.068;73.284;2023-11-18T02:44:41;33.00;25.00;15.50
79038;PMS5003;68436;55.068;73.284;2023-11-18T02:47:08;32.67;23.00;13.67
79038;PMS5003;68436;55.068;73.284;2023-11-18T02:49:35;38.00;29.50;17.00
79038;PMS5003;68436;55.068;73.284;2023-11-18T02:52:01;33.00;25.00;14.00
79038;PMS5003;68436;55.068;73.284;2023-11-18T02:54:28;33.00;25.00;15.00
79038;PMS5003;68436;55.068;73.284;2023-11-18T02:56:54;24.00;19.00;12.50
79038;PMS5003;68436;55.068;73.284;2023-11-18T02:59:21;24.00;19.00;10.00
79038;PMS5003;68436;55.068;73.284;2023-11-18T03:01:54;23.50;19.00;12.00
79038;PMS5003;68436;55.068;73.284;2023-11-18T03:04:20;25.00;20.00;9.50
79038;PMS5003;68436;55.068;73.284;2023-11-18T03:06:54;25.00;19.00;10.00
79038;PMS5003;68436;55.068;73.284;2023-11-18T03:09:21;29.75;24.00;14.75
79038;PMS5003;68436;55.068;73.284;2023-11-18T03:11:54;24.00;20.00;13.00
79038;PMS5003;68436;55.068;73.284;2023-11-18T03:14:20;25.50;21.00;11.00
79038;PMS5003;68436;55.068;73.284;2023-11-18T03:16:54;20.00;17.00;9.67
79038;PMS5003;68436;55.068;73.284;2023-11-18T03:19:21;21.25;16.00;9.00
79038;PMS5003;68436;55.068;73.284;2023-11-18T03:21:54;18.00;14.00;9.00
79038;PMS5003;68436;55.068;73.284;2023-11-18T03:24:20;19.50;16.00;10.00
79038;PMS5003;68436;55.068;73.284;2023-11-18T03:26:54;24.00;18.00;11.00
79038;PMS5003;68436;55.068;73.284;2023-11-18T03:29:20;19.00;16.25;9.50
79038;PMS5003;68436;55.068;73.284;2023-11-18T03:31:54;27.00;22.00;13.00
79038;PMS5003;68436;55.068;73.284;2023-11-18T03:34:20;29.50;22.00;12.00
79038;PMS5003;68436;55.068;73.284;2023-11-18T03:36:54;31.00;24.00;15.00
79038;PMS5003;68436;55.068;73.284;2023-11-18T03:39:22;28.00;22.25;13.00
79038;PMS5003;68436;55.068;73.284;2023-11-18T03:41:54;23.00;19.00;13.00
79038;PMS5003;68436;55.068;73.284;2023-11-18T03:44:23;26.00;20.00;12.00
79038;PMS5003;68436;55.068;73.284;2023-11-18T03:46:54;24.50;18.00;12.00
79038;PMS5003;68436;55.068;73.284;2023-11-18T03:49:20;31.00;24.00;15.00
79038;PMS5003;68436;55.068;73.284;2023-11-18T03:51:54;27.67;22.67;12.67
79038;PMS5003;68436;55.068;73.284;2023-11-18T03:54:20;34.50;27.00;14.00
79038;PMS5003;68436;55.068;73.284;2023-11-18T03:56:54;34.00;26.33;16.00
79038;PMS5003;68436;55.068;73.284;2023-11-18T03:59:20;31.75;25.00;15.00
79038;PMS5003;68436;55.068;73.284;2023-11-18T04:01:54;26.33;22.67;14.00
79038;PMS5003;68436;55.068;73.284;2023-11-18T04:04:20;32.00;24.00;13.50
79038;PMS5003;68436;55.068;73.284;2023-11-18T04:06:55;35.33;28.00;17.00
79038;PMS5003;68436;55.068;73.284;2023-11-18T04:09:21;31.75;25.25;16.00
79038;PMS5003;68436;55.068;73.284;2023-11-18T04:11:54;33.00;27.00;17.00
79038;PMS5003;68436;55.068;73.284;2023-11-18T04:14:20;51.75;40.50;24.00
79038;PMS5003;68436;55.068;73.284;2023-11-18T04:16:54;26.00;19.00;11.00
79038;PMS5003;68436;55.068;73.284;2023-11-18T04:19:21;25.25;20.00;11.00
79038;PMS5003;68436;55.068;73.284;2023-11-18T04:21:54;30.00;24.50;15.00
79038;PMS5003;68436;55.068;73.284;2023-11-18T04:24:20;26.75;20.75;12.00
79038;PMS5003;68436;55.068;73.284;2023-11-18T04:26:54;19.67;16.67;9.33
79038;PMS5003;68436;55.068;73.284;2023-11-18T04:29:20;28.00;21.00;12.00
79038;PMS5003;68436;55.068;73.284;2023-11-18T04:31:54;27.00;21.00;12.00
79038;PMS5003;68436;55.068;73.284;2023-11-18T04:34:20;28.00;20.75;12.00
79038;PMS5003;68436;55.068;73.284;2023-11-18T04:36:54;29.00;22.67;13.00
79038;PMS5003;68436;55.068;73.284;2023-11-18T04:39:20;28.00;22.50;14.00
79038;PMS5003;68436;55.068;73.284;2023-11-18T04:41:54;29.00;23.00;15.00
79038;PMS5003;68436;55.068;73.284;2023-11-18T04:44:21;43.00;34.00;20.00
79038;PMS5003;68436;55.068;73.284;2023-11-18T04:46:54;19.50;16.00;10.00
79038;PMS5003;68436;55.068;73.284;2023-11-18T04:49:20;29.50;23.00;13.00
79038;PMS5003;68436;55.068;73.284;2023-11-18T04:51:54;21.00;16.00;7.00
79038;PMS5003;68436;55.068;73.284;2023-11-18T04:54:22;24.00;18.75;10.00
79038;PMS5003;68436;55.068;73.284;2023-11-18T04:56:54;18.00;14.00;7.00
79038;PMS5003;68436;55.068;73.284;2023-11-18T04:59:20;17.00;13.50;7.50
79038;PMS5003;68436;55.068;73.284;2023-11-18T05:01:54;21.00;17.00;10.00
79038;PMS5003;68436;55.068;73.284;2023-11-18T05:04:20;14.50;11.50;6.25
79038;PMS5003;68436;55.068;73.284;2023-11-18T05:06:54;13.00;11.00;6.67
79038;PMS5003;68436;55.068;73.284;2023-11-18T05:09:24;22.00;17.00;9.00
79038;PMS5003;68436;55.068;73.284;2023-11-18T05:11:54;17.50;14.50;9.00
79038;PMS5003;68436;55.068;73.284;2023-11-18T05:14:20;21.00;17.00;10.25
79038;PMS5003;68436;55.068;73.284;2023-11-18T05:16:54;22.67;19.00;12.00
79038;PMS5003;68436;55.068;73.284;2023-11-18T05:19:20;10.00;8.00;5.00
79038;PMS5003;68436;55.068;73.284;2023-11-18T05:21:54;10.00;7.00;4.00
79038;PMS5003;68436;55.068;73.284;2023-11-18T05:24:20;15.00;11.00;6.00
79038;PMS5003;68436;55.068;73.284;2023-11-18T05:26:54;11.00;9.00;5.00
79038;PMS5003;68436;55.068;73.284;2023-11-18T05:29:20;25.25;20.00;12.75
79038;PMS5003;68436;55.068;73.284;2023-11-18T05:31:54;22.00;17.67;11.00
79038;PMS5003;68436;55.068;73.284;2023-11-18T05:34:23;18.50;15.00;9.00
79038;PMS5003;68436;55.068;73.284;2023-11-18T05:36:54;21.00;16.00;8.00
79038;PMS5003;68436;55.068;73.284;2023-11-18T05:39:20;11.00;10.00;6.00
79038;PMS5003;68436;55.068;73.284;2023-11-18T05:41:54;9.00;8.00;5.00
79038;PMS5003;68436;55.068;73.284;2023-11-18T05:44:21;16.25;13.25;8.00
79038;PMS5003;68436;55.068;73.284;2023-11-18T05:46:58;6.50;5.00;3.00
79038;PMS5003;68436;55.068;73.284;2023-11-18T05:49:25;13.75;11.25;7.00
79038;PMS5003;68436;55.068;73.284;2023-11-18T05:51:54;25.00;21.00;12.00
79038;PMS5003;68436;55.068;73.284;2023-11-18T05:54:20;6.50;5.50;3.00
79038;PMS5003;68436;55.068;73.284;2023-11-18T05:56:54;9.00;7.00;4.00
79038;PMS5003;68436;55.068;73.284;2023-11-18T05:59:20;8.00;6.00;3.00
79038;PMS5003;68436;55.068;73.284;2023-11-18T06:01:54;7.50;6.50;5.00
79038;PMS5003;68436;55.068;73.284;2023-11-18T06:04:22;6.00;5.00;3.00
79038;PMS5003;68436;55.068;73.284;2023-11-18T06:06:54;12.00;10.00;5.00
79038;PMS5003;68436;55.068;73.284;2023-11-18T06:09:20;10.75;8.00;5.00
79038;PMS5003;68436;55.068;73.284;2023-11-18T06:11:54;10.00;9.00;5.00
79038;PMS5003;68436;55.068;73.284;2023-11-18T06:14:20;7.00;6.50;4.25
79038;PMS5003;68436;55.068;73.284;2023-11-18T06:16:54;7.00;6.00;3.00
79038;PMS5003;68436;55.068;73.284;2023-11-18T06:19:20;8.00;7.00;4.00
79038;PMS5003;68436;55.068;73.284;2023-11-18T06:21:54;10.00;8.00;5.00
79038;PMS5003;68436;55.068;73.284;2023-11-18T06:24:21;12.00;10.00;5.50
79038;PMS5003;68436;55.068;73.284;2023-11-18T06:26:54;6.00;5.00;3.00
79038;PMS5003;68436;55.068;73.284;2023-11-18T06:29:20;22.25;17.50;11.00
79038;PMS5003;68436;55.068;73.284;2023-11-18T06:31:54;16.00;14.33;7.67
79038;PMS5003;68436;55.068;73.284;2023-11-18T06:34:20;8.00;7.00;4.00
79038;PMS5003;68436;55.068;73.284;2023-11-18T06:36:54;35.00;26.33;16.33
79038;PMS5003;68436;55.068;73.284;2023-11-18T06:39:22;7.50;6.00;4.00
79038;PMS5003;68436;55.068;73.284;2023-11-18T06:41:57;22.00;17.00;11.00
79038;PMS5003;68436;55.068;73.284;2023-11-18T06:44:24;11.50;9.00;5.75
79038;PMS5003;68436;55.068;73.284;2023-11-18T06:46:54;7.50;6.00;4.00
79038;PMS5003;68436;55.068;73.284;2023-11-18T06:49:23;8.25;5.75;3.25
79038;PMS5003;68436;55.068;73.284;2023-11-18T06:51:54;9.00;8.00;5.00
79038;PMS5003;68436;55.068;73.284;2023-11-18T06:54:20;6.00;4.50;3.00
79038;PMS5003;68436;55.068;73.284;2023-11-18T06:56:54;19.00;16.00;10.00
79038;PMS5003;68436;55.068;73.284;2023-11-18T06:59:20;5.00;5.00;4.00
79038;PMS5003;68436;55.068;73.284;2023-11-18T07:01:54;23.00;19.00;11.67
79038;PMS5003;68436;55.068;73.284;2023-11-18T07:04:19;6.00;6.00;3.00
79038;PMS5003;68436;55.068;73.284;2023-11-18T07:06:54;25.00;18.67;11.00
79038;PMS5003;68436;55.068;73.284;2023-11-18T07:09:20;10.00;8.75;6.00
79038;PMS5003;68436;55.068;73.284;2023-11-18T07:11:54;7.00;6.00;4.00
79038;PMS5003;68436;55.068;73.284;2023-11-18T07:14:21;9.00;8.00;5.00
79038;PMS5003;68436;55.068;73.284;2023-11-18T07:16:54;10.50;8.50;5.00
79038;PMS5003;68436;55.068;73.284;2023-11-18T07:19:20;17.50;14.50;8.50
79038;PMS5003;68436;55.068;73.284;2023-11-18T07:21:54;21.00;18.00;12.00
79038;PMS5003;68436;55.068;73.284;2023-11-18T07:24:20;9.00;8.00;4.00
79038;PMS5003;68436;55.068;73.284;2023-11-18T07:26:54;8.33;6.33;5.00
79038;PMS5003;68436;55.068;73.284;2023-11-18T07:29:20;8.00;7.00;4.00
79038;PMS5003;68436;55.068;73.284;2023-11-18T07:31:54;9.00;7.00;5.00
79038;PMS5003;68436;55.068;73.284;2023-11-18T07:34:22;28.25;23.50;14.00
79038;PMS5003;68436;55.068;73.284;2023-11-18T07:36:54;8.00;7.00;5.00
79038;PMS5003;68436;55.068;73.284;2023-11-18T07:39:21;9.25;8.25;5.00
79038;PMS5003;68436;55.068;73.284;2023-11-18T07:41:55;6.00;5.50;4.00
79038;PMS5003;68436;55.068;73.284;2023-11-18T07:44:28;8.50;6.75;4.00
79038;PMS5003;68436;55.068;73.284;2023-11-18T07:46:54;7.00;6.00;4.00
79038;PMS5003;68436;55.068;73.284;2023-11-18T07:49:20;15.00;12.00;8.00
79038;PMS5003;68436;55.068;73.284;2023-11-18T07:51:54;16.00;14.00;10.00
79038;PMS5003;68436;55.068;73.284;2023-11-18T07:54:22;6.00;5.00;3.00
79038;PMS5003;68436;55.068;73.284;2023-11-18T07:56:54;5.00;4.00;3.00
79038;PMS5003;68436;55.068;73.284;2023-11-18T07:59:20;10.00;8.00;4.00
79038;PMS5003;68436;55.068;73.284;2023-11-18T08:01:54;11.00;10.00;5.00
79038;PMS5003;68436;55.068;73.284;2023-11-18T08:04:20;9.00;8.00;5.00
79038;PMS5003;68436;55.068;73.284;2023-11-18T08:06:54;10.00;9.00;6.00
79038;PMS5003;68436;55.068;73.284;2023-11-18T08:09:20;7.00;6.00;4.00
79038;PMS5003;68436;55.068;73.284;2023-11-18T08:11:54;30.00;25.00;14.00
79038;PMS5003;68436;55.068;73.284;2023-11-18T08:14:21;8.00;7.00;5.00
79038;PMS5003;68436;55.068;73.284;2023-11-18T08:17:06;13.00;11.00;8.00
79038;PMS5003;68436;55.068;73.284;2023-11-18T08:19:32;10.50;9.00;5.25
79038;PMS5003;68436;55.068;73.284;2023-11-18T08:21:59;19.75;17.50;10.25
79038;PMS5003;68436;55.068;73.284;2023-11-18T08:24:25;23.00;18.75;11.00
79038;PMS5003;68436;55.068;73.284;2023-11-18T08:26:54;8.00;6.50;4.50
79038;PMS5003;68436;55.068;73.284;2023-11-18T08:29:19;11.00;9.00;5.00
79038;PMS5003;68436;55.068;73.284;2023-11-18T08:31:54;9.50;8.50;6.00
79038;PMS5003;68436;55.068;73.284;2023-11-18T08:34:19;9.00;8.00;5.00
79038;PMS5003;68436;55.068;73.284;2023-11-18T08:36:54;8.00;8.00;5.00
79038;PMS5003;68436;55.068;73.284;2023-11-18T08:39:19;16.75;14.25;10.50
79038;PMS5003;68436;55.068;73.284;2023-11-18T08:41:54;22.00;19.00;11.33
79038;PMS5003;68436;55.068;73.284;2023-11-18T08:44:19;9.25;9.00;5.00
79038;PMS5003;68436;55.068;73.284;2023-11-18T08:46:54;22.00;17.67;11.00
79038;PMS5003;68436;55.068;73.284;2023-11-18T08:49:20;15.00;13.25;8.00
79038;PMS5003;68436;55.068;73.284;2023-11-18T08:51:54;14.00;12.00;8.50
79038;PMS5003;68436;55.068;73.284;2023-11-18T08:54:24;40.00;32.00;19.00
79038;PMS5003;68436;55.068;73.284;2023-11-18T08:56:54;14.50;13.00;9.00
79038;PMS5003;68436;55.068;73.284;2023-11-18T08:59:20;35.50;27.75;16.50
79038;PMS5003;68436;55.068;73.284;2023-11-18T09:01:54;24.00;20.00;10.00
79038;PMS5003;68436;55.068;73.284;2023-11-18T09:04:25;14.00;12.00;7.00
79038;PMS5003;68436;55.068;73.284;2023-11-18T09:06:54;42.00;33.00;21.00
79038;PMS5003;68436;55.068;73.284;2023-11-18T09:09:20;25.50;21.25;12.50
79038;PMS5003;68436;55.068;73.284;2023-11-18T09:11:54;37.50;31.00;19.50
79038;PMS5003;68436;55.068;73.284;2023-11-18T09:14:24;14.00;12.00;7.00
79038;PMS5003;68436;55.068;73.284;2023-11-18T09:16:54;12.00;10.00;7.00
79038;PMS5003;68436;55.068;73.284;2023-11-18T09:19:25;23.50;19.00;13.00
79038;PMS5003;68436;55.068;73.284;2023-11-18T09:21:54;32.50;26.00;16.00
79038;PMS5003;68436;55.068;73.284;2023-11-18T09:24:20;20.75;16.00;10.25
79038;PMS5003;68436;55.068;73.284;2023-11-18T09:26:53;15.00;13.00;7.00
79038;PMS5003;68436;55.068;73.284;2023-11-18T09:29:20;17.00;14.00;8.00
79038;PMS5003;68436;55.068;73.284;2023-11-18T09:31:53;16.00;13.00;8.00
79038;PMS5003;68436;55.068;73.284;2023-11-18T09:34:39;45.75;35.75;21.25
79038;PMS5003;68436;55.068;73.284;2023-11-18T09:37:05;20.00;16.00;7.50
79038;PMS5003;68436;55.068;73.284;2023-11-18T09:39:35;27.00;22.75;13.75
79038;PMS5003;68436;55.068;73.284;2023-11-18T09:42:05;24.33;20.00;12.00
79038;PMS5003;68436;55.068;73.284;2023-11-18T09:44:35;23.50;19.00;10.50
79038;PMS5003;68436;55.068;73.284;2023-11-18T09:47:03;35.75;28.50;18.25
79038;PMS5003;68436;55.068;73.284;2023-11-18T09:49:38;27.00;21.00;11.75
79038;PMS5003;68436;55.068;73.284;2023-11-18T09:52:06;30.25;23.00;13.25
79038;PMS5003;68436;55.068;73.284;2023-11-18T09:59:54;25.25;20.50;11.25
79038;PMS5003;68436;55.068;73.284;2023-11-18T10:02:24;16.00;12.50;8.50
79038;PMS5003;68436;55.068;73.284;2023-11-18T10:04:51;19.75;16.50;9.00
79038;PMS5003;68436;55.068;73.284;2023-11-18T10:07:26;15.00;13.00;7.00
79038;PMS5003;68436;55.068;73.284;2023-11-18T10:09:56;30.00;23.00;13.00
79038;PMS5003;68436;55.068;73.284;2023-11-18T10:12:23;16.00;12.00;7.00
79038;PMS5003;68436;55.068;73.284;2023-11-18T10:14:49;14.25;12.00;8.00
79038;PMS5003;68436;55.068;73.284;2023-11-18T10:17:19;37.00;28.00;16.00
79038;PMS5003;68436;55.068;73.284;2023-11-18T10:19:57;11.25;10.00;6.00
79038;PMS5003;68436;55.068;73.284;2023-11-18T10:22:25;13.00;11.00;7.00
79038;PMS5003;68436;55.068;73.284;2023-11-18T10:24:52;21.25;18.50;11.75
79038;PMS5003;68436;55.068;73.284;2023-11-18T10:27:22;11.00;10.00;6.00
79038;PMS5003;68436;55.068;73.284;2023-11-18T10:29:49;37.00;30.00;19.00
79038;PMS5003;68436;55.068;73.284;2023-11-18T10:32:16;18.00;15.00;9.00
79038;PMS5003;68436;55.068;73.284;2023-11-18T10:34:45;8.25;7.50;4.50
79038;PMS5003;68436;55.068;73.284;2023-11-18T10:37:11;8.33;8.00;5.33
79038;PMS5003;68436;55.068;73.284;2023-11-18T10:39:37;31.50;24.50;14.75
79038;PMS5003;68436;55.068;73.284;2023-11-18T10:42:03;18.00;15.75;9.75
79038;PMS5003;68436;55.068;73.284;2023-11-18T10:44:29;18.75;16.00;10.00
79038;PMS5003;68436;55.068;73.284;2023-11-18T10:46:55;31.00;25.50;15.00
79038;PMS5003;68436;55.068;73.284;2023-11-18T10:49:26;12.00;11.00;6.75
79038;PMS5003;68436;55.068;73.284;2023-11-18T10:51:55;12.50;11.00;7.00
79038;PMS5003;68436;55.068;73.284;2023-11-18T10:54:22;27.00;23.00;15.00
79038;PMS5003;68436;55.068;73.284;2023-11-18T10:56:53;9.00;7.00;6.00
79038;PMS5003;68436;55.068;73.284;2023-11-18T10:59:22;23.00;20.00;12.00
79038;PMS5003;68436;55.068;73.284;2023-11-18T11:01:53;32.00;25.00;16.00
79038;PMS5003;68436;55.068;73.284;2023-11-18T11:04:23;17.00;14.00;8.00
79038;PMS5003;68436;55.068;73.284;2023-11-18T11:06:53;33.00;25.00;16.00
79038;PMS5003;68436;55.068;73.284;2023-11-18T11:09:23;7.00;6.00;3.50
79038;PMS5003;68436;55.068;73.284;2023-11-18T11:12:04;13.75;12.00;8.00
79038;PMS5003;68436;55.068;73.284;2023-11-18T11:14:34;9.00;7.00;4.50
79038;PMS5003;68436;55.068;73.284;2023-11-18T11:17:07;5.00;4.00;2.25
79038;PMS5003;68436;55.068;73.284;2023-11-18T11:22:15;28.67;24.00;15.67
79038;PMS5003;68436;55.068;73.284;2023-11-18T11:24:54;22.50;18.75;11.00
79038;PMS5003;68436;55.068;73.284;2023-11-18T11:27:23;12.33;10.67;5.33
79038;PMS5003;68436;55.068;73.284;2023-11-18T11:30:22;6.25;5.00;2.75
79038;PMS5003;68436;55.068;73.284;2023-11-18T11:32:50;17.33;14.00;8.00
79038;PMS5003;68436;55.068;73.284;2023-11-18T11:35:30;9.50;8.00;5.00
79038;PMS5003;68436;55.068;73.284;2023-11-18T11:37:56;15.00;12.33;7.67
79038;PMS5003;68436;55.068;73.284;2023-11-18T11:40:30;7.00;5.00;3.00
79038;PMS5003;68436;55.068;73.284;2023-11-18T11:42:57;5.00;4.00;2.00
79038;PMS5003;68436;55.068;73.284;2023-11-18T11:45:23;9.50;8.00;5.00
79038;PMS5003;68436;55.068;73.284;2023-11-18T11:47:54;17.00;14.00;9.00
79038;PMS5003;68436;55.068;73.284;2023-11-18T11:50:42;9.25;8.25;5.50
79038;PMS5003;68436;55.068;73.284;2023-11-18T11:53:12;5.00;4.00;2.00
79038;PMS5003;68436;55.068;73.284;2023-11-18T11:56:01;4.00;3.75;2.00
79038;PMS5003;68436;55.068;73.284;2023-11-18T11:59:03;4.00;3.75;2.25
79038;PMS5003;68436;55.068;73.284;2023-11-18T12:02:00;3.00;3.00;2.00
79038;PMS5003;68436;55.068;73.284;2023-11-18T12:04:32;18.25;12.50;7.50
79038;PMS5003;68436;55.068;73.284;2023-11-18T12:10:00;4.75;4.00;3.00
79038;PMS5003;68436;55.068;73.284;2023-11-18T12:12:27;4.25;4.00;2.25
79038;PMS5003;68436;55.068;73.284;2023-11-18T12:14:54;4.75;4.50;3.00
79038;PMS5003;68436;55.068;73.284;2023-11-18T12:17:26;11.67;9.67;6.33
79038;PMS5003;68436;55.068;73.284;2023-11-18T12:19:57;5.00;3.25;2.00
79038;PMS5003;68436;55.068;73.284;2023-11-18T12:23:02;3.00;3.00;2.00
79038;PMS5003;68436;55.068;73.284;2023-11-18T12:25:28;4.00;3.00;2.00
79038;PMS5003;68436;55.068;73.284;2023-11-18T12:28:07;7.75;7.00;3.50
79038;PMS5003;68436;55.068;73.284;2023-11-18T12:30:45;24.50;20.50;13.50
79038;PMS5003;68436;55.068;73.284;2023-11-18T12:48:57;18.50;15.50;9.00
79038;PMS5003;68436;55.068;73.284;2023-11-18T12:51:26;1.50;1.50;1.00
79038;PMS5003;68436;55.068;73.284;2023-11-18T12:53:58;4.00;4.00;2.00
79038;PMS5003;68436;55.068;73.284;2023-11-18T12:56:56;3.00;3.00;2.00
79038;PMS5003;68436;55.068;73.284;2023-11-18T12:59:22;1.00;1.00;1.00
79038;PMS5003;68436;55.068;73.284;2023-11-18T13:02:23;1.00;1.00;1.00
79038;PMS5003;68436;55.068;73.284;2023-11-18T13:05:15;2.00;2.00;1.00
79038;PMS5003;68436;55.068;73.284;2023-11-18T13:07:40;1.00;1.00;1.00
79038;PMS5003;68436;55.068;73.284;2023-11-18T13:10:08;1.00;1.00;0.00
79038;PMS5003;68436;55.068;73.284;2023-11-18T13:12:44;5.00;3.00;1.00
79038;PMS5003;68436;55.068;73.284;2023-11-18T13:15:15;2.00;1.00;0.00
79038;PMS5003;68436;55.068;73.284;2023-11-18T13:18:04;1.00;1.00;0.00
79038;PMS5003;68436;55.068;73.284;2023-11-18T13:20:33;1.00;0.00;0.00
79038;PMS5003;68436;55.068;73.284;2023-11-18T13:23:17;1.00;1.00;0.00
79038;PMS5003;68436;55.068;73.284;2023-11-18T13:25:47;1.00;1.00;0.00
79038;PMS5003;68436;55.068;73.284;2023-11-18T13:28:17;1.00;1.00;0.33
79038;PMS5003;68436;55.068;73.284;2023-11-18T13:30:56;1.00;1.00;1.00
79038;PMS5003;68436;55.068;73.284;2023-11-18T13:33:25;1.00;1.00;0.00
79038;PMS5003;68436;55.068;73.284;2023-11-18T13:35:51;1.00;0.25;0.00
79038;PMS5003;68436;55.068;73.284;2023-11-18T13:38:33;0.33;0.33;0.00
79038;PMS5003;68436;55.068;73.284;2023-11-18T13:41:00;0.00;0.00;0.00
79038;PMS5003;68436;55.068;73.284;2023-11-18T13:43:47;0.00;0.00;0.00
79038;PMS5003;68436;55.068;73.284;2023-11-18T13:46:33;0.00;0.00;0.00
79038;PMS5003;68436;55.068;73.284;2023-11-18T13:49:02;0.00;0.00;0.00
79038;PMS5003;68436;55.068;73.284;2023-11-18T13:51:54;0.00;0.00;0.00
79038;PMS5003;68436;55.068;73.284;2023-11-18T13:54:21;0.00;0.00;0.00
79038;PMS5003;68436;55.068;73.284;2023-11-18T13:56:53;0.00;0.00;0.00
79038;PMS5003;68436;55.068;73.284;2023-11-18T13:59:26;1.00;1.00;0.00
79038;PMS5003;68436;55.068;73.284;2023-11-18T14:01:53;0.00;0.00;0.00
79038;PMS5003;68436;55.068;73.284;2023-11-18T14:04:29;0.00;0.00;0.00
79038;PMS5003;68436;55.068;73.284;2023-11-18T14:06:59;0.00;0.00;0.00
79038;PMS5003;68436;55.068;73.284;2023-11-18T14:09:26;0.00;0.00;0.00
79038;PMS5003;68436;55.068;73.284;2023-11-18T14:11:55;1.00;0.50;0.00
79038;PMS5003;68436;55.068;73.284;2023-11-18T14:14:22;0.00;0.00;0.00
79038;PMS5003;68436;55.068;73.284;2023-11-18T14:16:53;0.00;0.00;0.00
79038;PMS5003;68436;55.068;73.284;2023-11-18T14:19:23;0.00;0.00;0.00
79038;PMS5003;68436;55.068;73.284;2023-11-18T14:21:54;0.00;0.00;0.00
79038;PMS5003;68436;55.068;73.284;2023-11-18T14:24:20;0.00;0.00;0.00
79038;PMS5003;68436;55.068;73.284;2023-11-18T14:26:54;0.00;0.00;0.00
79038;PMS5003;68436;55.068;73.284;2023-11-18T14:29:20;0.00;0.00;0.00
79038;PMS5003;68436;55.068;73.284;2023-11-18T14:31:53;0.00;0.00;0.00
79038;PMS5003;68436;55.068;73.284;2023-11-18T14:34:22;0.00;0.00;0.00
79038;PMS5003;68436;55.068;73.284;2023-11-18T14:36:53;0.00;0.00;0.00
79038;PMS5003;68436;55.068;73.284;2023-11-18T14:39:19;0.00;0.00;0.00